createdAt,value
2022-09-24T00:04:43.993Z,11.23
2022-09-24T00:09:50.969Z,11.22
2022-09-24T00:14:58.003Z,11.25
2022-09-24T00:20:03.786Z,11.19
2022-09-24T00:25:28.056Z,11.18
2022-09-24T00:30:33.560Z,11.13
2022-09-24T00:35:42.673Z,11.07
2022-09-24T00:40:48.544Z,11.08
2022-09-24T00:45:57.066Z,11.12
2022-09-24T00:51:04.281Z,11.11
2022-09-24T00:56:14.373Z,11.14
2022-09-24T01:01:22.533Z,11.13
2022-09-24T01:06:28.441Z,11.14
2022-09-24T01:11:42.851Z,11.14
2022-09-24T01:17:17.069Z,11.17
2022-09-24T01:22:43.856Z,11.17
2022-09-24T01:28:21.091Z,11.05
2022-09-24T01:33:29.548Z,11.11
2022-09-24T01:38:38.718Z,11.18
2022-09-24T01:43:45.906Z,11.26
2022-09-24T01:48:51.853Z,11.31
2022-09-24T01:54:03.776Z,11.38
2022-09-24T01:59:28.733Z,11.44
2022-09-24T02:04:37.175Z,11.53
2022-09-24T02:09:44.797Z,11.57
2022-09-24T02:14:54.514Z,11.62
2022-09-24T02:20:02.727Z,11.63
2022-09-24T02:25:11.382Z,11.63
2022-09-24T02:30:17.397Z,11.69
2022-09-24T02:35:23.523Z,11.72
2022-09-24T02:40:29.373Z,11.78
2022-09-24T02:45:34.846Z,11.86
2022-09-24T02:50:40.258Z,11.90
2022-09-24T02:55:45.658Z,11.95
2022-09-24T03:00:51.057Z,11.96
2022-09-24T03:05:56.470Z,11.84
2022-09-24T03:11:01.881Z,11.86
2022-09-24T03:16:08.657Z,11.91
2022-09-24T03:21:16.347Z,11.95
2022-09-24T03:26:21.881Z,12.01
2022-09-24T03:31:27.754Z,12.01
2022-09-24T03:36:33.539Z,12.06
2022-09-24T03:41:39.428Z,12.04
2022-09-24T03:46:45.075Z,12.08
2022-09-24T03:51:52.412Z,12.09
2022-09-24T03:56:58.872Z,12.11
2022-09-24T04:02:04.352Z,12.14
2022-09-24T04:07:09.735Z,12.12
2022-09-24T04:12:15.205Z,12.11
2022-09-24T04:17:20.585Z,12.16
2022-09-24T04:22:28.888Z,12.19
2022-09-24T04:27:35.979Z,12.23
2022-09-24T04:32:42.703Z,12.21
2022-09-24T04:37:48.537Z,12.24
2022-09-24T04:42:53.916Z,12.26
2022-09-24T04:47:59.371Z,12.30
2022-09-24T04:53:05.392Z,12.35
2022-09-24T04:58:11.375Z,12.39
2022-09-24T05:03:17.212Z,12.41
2022-09-24T05:08:22.685Z,12.44
2022-09-24T05:13:28.569Z,12.44
2022-09-24T05:18:36.289Z,12.43
2022-09-24T05:23:41.747Z,12.44
2022-09-24T05:28:47.320Z,12.49
2022-09-24T05:33:52.759Z,12.55
2022-09-24T05:38:58.320Z,12.63
2022-09-24T05:44:05.031Z,12.70
2022-09-24T05:49:11.228Z,12.69
2022-09-24T05:54:17.289Z,12.71
2022-09-24T05:59:22.749Z,12.72
2022-09-24T06:04:28.146Z,12.85
2022-09-24T06:09:33.542Z,12.92
2022-09-24T06:14:39.032Z,12.92
2022-09-24T06:19:44.419Z,12.94
2022-09-24T06:24:51.516Z,12.96
2022-09-24T06:29:56.904Z,13.05
2022-09-24T06:35:02.275Z,13.13
2022-09-24T06:40:09.517Z,13.22
2022-09-24T06:45:15.085Z,13.35
2022-09-24T06:50:20.588Z,13.45
2022-09-24T06:55:26.235Z,13.57
2022-09-24T07:00:31.768Z,13.40
2022-09-24T07:05:43.213Z,13.44
2022-09-24T07:10:52.716Z,13.65
2022-09-24T07:15:58.167Z,13.86
2022-09-24T07:21:03.589Z,14.06
2022-09-24T07:26:08.993Z,14.05
2022-09-24T07:31:14.522Z,14.08
2022-09-24T07:36:19.982Z,14.21
2022-09-24T07:41:26.021Z,14.37
2022-09-24T07:46:31.592Z,14.43
2022-09-24T07:51:37.176Z,14.54
2022-09-24T07:56:42.639Z,14.60
2022-09-24T08:01:48.106Z,14.70
2022-09-24T08:06:53.591Z,14.89
2022-09-24T08:11:58.981Z,15.10
2022-09-24T08:17:04.378Z,15.25
2022-09-24T08:22:09.845Z,15.41
2022-09-24T08:27:17.482Z,15.48
2022-09-24T08:32:22.615Z,15.78
2022-09-24T08:37:29.440Z,15.81
2022-09-24T08:42:58.566Z,15.99
2022-09-24T08:48:16.256Z,16.22
2022-09-24T08:53:27.967Z,16.29
2022-09-24T08:58:51.511Z,16.49
2022-09-24T09:04:16.426Z,16.70
2022-09-24T09:09:41.471Z,17.00
2022-09-24T09:15:07.083Z,17.18
2022-09-24T09:20:15.529Z,17.50
2022-09-24T09:25:26.210Z,17.57
2022-09-24T09:30:43.901Z,17.79
2022-09-24T09:36:00.906Z,17.99
2022-09-24T09:41:14.892Z,18.13
2022-09-24T09:46:23.419Z,18.28
2022-09-24T09:51:31.913Z,18.54
2022-09-24T09:56:40.372Z,18.58
2022-09-24T10:01:49.059Z,18.51
2022-09-24T10:07:15.418Z,18.66
2022-09-24T10:12:24.385Z,18.70
2022-09-24T10:17:38.476Z,18.94
2022-09-24T10:22:46.915Z,19.10
2022-09-24T10:27:57.331Z,19.15
2022-09-24T10:33:05.828Z,19.05
2022-09-24T10:38:24.575Z,18.97
2022-09-24T10:43:31.310Z,19.12
2022-09-24T10:48:48.795Z,19.01
2022-09-24T10:54:18.696Z,18.98
2022-09-24T10:59:36.123Z,18.99
2022-09-24T11:04:53.566Z,18.91
2022-09-24T11:10:26.381Z,18.95
2022-09-24T11:15:54.495Z,19.07
2022-09-24T11:21:05.810Z,19.14
2022-09-24T11:26:20.182Z,19.21
2022-09-24T11:31:43.945Z,19.34
2022-09-24T11:36:58.310Z,19.42
2022-09-24T11:42:09.969Z,19.40
2022-09-24T11:47:45.189Z,19.38
2022-09-24T11:52:53.641Z,19.33
2022-09-24T11:58:17.712Z,19.33
2022-09-24T12:03:29.133Z,19.44
2022-09-24T12:08:40.255Z,19.51
2022-09-24T12:13:52.484Z,19.51
2022-09-24T12:19:17.560Z,19.59
2022-09-24T12:24:34.961Z,19.58
2022-09-24T12:30:16.758Z,19.62
2022-09-24T12:35:31.465Z,19.54
2022-09-24T12:40:45.689Z,19.58
2022-09-24T12:45:57.548Z,19.42
2022-09-24T12:51:06.090Z,19.43
2022-09-24T12:56:12.790Z,19.63
2022-09-24T13:01:30.753Z,19.73
2022-09-24T13:06:38.753Z,19.75
2022-09-24T13:11:44.482Z,19.70
2022-09-24T13:16:53.385Z,19.81
2022-09-24T13:22:01.436Z,19.84
2022-09-24T13:27:21.932Z,19.88
2022-09-24T13:32:28.263Z,19.97
2022-09-24T13:37:36.721Z,19.99
2022-09-24T13:42:48.131Z,20.07
2022-09-24T13:47:59.345Z,20.07
2022-09-24T13:53:10.517Z,20.04
2022-09-24T13:58:30.034Z,20.07
2022-09-24T14:03:37.351Z,20.13
2022-09-24T14:08:45.632Z,20.25
2022-09-24T14:13:52.276Z,20.23
2022-09-24T14:19:06.268Z,20.17
2022-09-24T14:24:17.600Z,20.16
2022-09-24T14:29:35.008Z,20.05
2022-09-24T14:34:45.362Z,20.03
2022-09-24T14:39:53.805Z,20.02
2022-09-24T14:45:01.024Z,20.02
2022-09-24T14:50:09.544Z,20.02
2022-09-24T14:55:20.977Z,19.99
2022-09-24T15:00:28.761Z,19.95
2022-09-24T15:05:35.132Z,19.91
2022-09-24T15:10:41.118Z,19.81
2022-09-24T15:15:47.923Z,19.75
2022-09-24T15:20:53.303Z,19.66
2022-09-24T15:25:58.710Z,19.60
2022-09-24T15:31:04.154Z,19.55
2022-09-24T15:36:10.913Z,19.51
2022-09-24T15:41:16.647Z,19.44
2022-09-24T15:46:22.127Z,19.42
2022-09-24T15:51:27.614Z,19.28
2022-09-24T15:56:34.646Z,19.15
2022-09-24T16:01:40.279Z,19.00
2022-09-24T16:06:45.764Z,18.89
2022-09-24T16:11:51.766Z,18.74
2022-09-24T16:16:57.156Z,18.56
2022-09-24T16:22:02.559Z,18.41
2022-09-24T16:27:08.014Z,18.27
2022-09-24T16:32:14.063Z,18.17
2022-09-24T16:37:19.466Z,18.02
2022-09-24T16:42:26.520Z,17.87
2022-09-24T16:47:31.919Z,17.74
2022-09-24T16:52:37.389Z,17.59
2022-09-24T16:57:42.951Z,17.47
2022-09-24T17:02:48.472Z,17.36
2022-09-24T17:07:53.885Z,17.29
2022-09-24T17:12:59.518Z,17.21
2022-09-24T17:18:05.057Z,17.12
2022-09-24T17:23:10.572Z,16.99
2022-09-24T17:28:16.024Z,16.84
2022-09-24T17:33:42.210Z,16.74
2022-09-24T17:38:31.996Z,16.57
2022-09-24T17:43:38.226Z,16.41
2022-09-24T17:48:46.182Z,16.30
2022-09-24T17:53:53.655Z,16.27
2022-09-24T17:58:59.450Z,16.17
2022-09-24T18:04:07.164Z,16.09
2022-09-24T18:09:14.166Z,16.00
2022-09-24T18:14:22.354Z,15.92
2022-09-24T18:19:27.913Z,15.83
2022-09-24T18:24:33.575Z,15.78
2022-09-24T18:29:40.479Z,15.73
2022-09-24T18:34:45.985Z,15.71
2022-09-24T18:39:51.451Z,15.68
2022-09-24T18:44:56.915Z,15.65
2022-09-24T18:50:02.335Z,15.67
2022-09-24T18:55:10.739Z,15.64
2022-09-24T19:00:17.993Z,15.58
2022-09-24T19:05:23.449Z,15.54
2022-09-24T19:10:30.197Z,15.53
2022-09-24T19:15:40.062Z,15.55
2022-09-24T19:20:51.155Z,15.58
2022-09-24T19:26:02.645Z,15.57
2022-09-24T19:31:10.560Z,15.57
2022-09-24T19:36:15.980Z,15.54
2022-09-24T19:41:27.173Z,15.48
2022-09-24T19:46:33.624Z,15.44
2022-09-24T19:51:40.305Z,15.39
2022-09-24T19:56:45.689Z,15.34
2022-09-24T20:01:52.454Z,15.31
2022-09-24T20:07:02.304Z,15.28
2022-09-24T20:12:05.775Z,15.24
2022-09-24T20:17:11.944Z,15.18
2022-09-24T20:22:17.679Z,15.16
2022-09-24T20:27:41.132Z,15.12
2022-09-24T20:32:46.807Z,15.10
2022-09-24T20:37:52.891Z,15.05
2022-09-24T20:42:58.668Z,15.04
2022-09-24T20:48:04.073Z,15.05
2022-09-24T20:53:09.640Z,15.02
2022-09-24T20:58:17.246Z,15.03
2022-09-24T21:03:42.713Z,15.00
2022-09-24T21:08:40.515Z,14.97
2022-09-24T21:13:51.757Z,14.92
2022-09-24T21:18:57.676Z,14.86
2022-09-24T21:24:03.877Z,14.84
2022-09-24T21:29:18.261Z,14.81
2022-09-24T21:34:23.735Z,14.80
2022-09-24T21:39:29.303Z,14.76
2022-09-24T21:44:34.719Z,14.72
2022-09-24T21:49:40.139Z,14.70
2022-09-24T21:54:45.544Z,14.69
2022-09-24T21:59:59.721Z,14.69
2022-09-24T22:05:05.612Z,14.72
2022-09-24T22:10:11.474Z,14.76
2022-09-24T22:15:17.392Z,14.74
2022-09-24T22:20:22.839Z,14.66
2022-09-24T22:25:28.310Z,14.67
2022-09-24T22:30:33.833Z,14.62
2022-09-24T22:35:50.102Z,14.45
2022-09-24T22:40:55.583Z,14.39
2022-09-24T22:46:02.925Z,14.45
2022-09-24T22:51:09.917Z,14.47
2022-09-24T22:56:18.806Z,14.46
2022-09-24T23:01:27.470Z,14.48
2022-09-24T23:06:34.803Z,14.46
2022-09-24T23:11:40.976Z,14.48
2022-09-24T23:16:47.020Z,14.49
2022-09-24T23:21:52.499Z,14.47
2022-09-24T23:26:57.980Z,14.43
2022-09-24T23:32:04.225Z,14.40
2022-09-24T23:37:10.954Z,14.35
2022-09-24T23:42:16.336Z,14.38
2022-09-24T23:47:22.658Z,14.39
2022-09-24T23:52:28.060Z,14.40
2022-09-24T23:57:33.623Z,14.39
